Etusivu
METAR-TAF:

METAR-TAF

Lentoasemat :

Ronnebyn lentoasema

Ronneby, Ruotsi

Leveyspiiri: 56-16N, Pituuspiiri: 015-17E, korkeus merenpinnasta: 58 m

Tämänhetkinen sää

Tämä raportti tehtiin 38 minuuttia sitten, kello 00.20 UTC
Tuuli 4 kn lännestä/luoteesta
Lämpötila 15°C
Kosteus 82%
Ilmanpaine 1011 hPa
Näkyvyys 10 km tai enemmän

METAR: ESDF 220020Z AUTO 29004KT 9999 NCD 15/12 Q1011

Aika: 02:58 (00:58 UTC)

Sääennuste

Tämä raportti tehtiin 13 tuntia ja 28 minuuttia sitten, kello 11.30 UTC
Ennuste voimassa 21. päivästä klo 12 UTC - 21. päivään klo 15 UTC
Tuuli 8 kn luoteesta
Näkyvyys 10 km tai enemmän
ei pilviä alle 1500 m:ssä eikä cumulonimbus-pilviä

TAF: ESDF 211130Z 2112/2115 31008KT CAVOK

Säähavainnot ja -ennusteet yli 4000 lentoasemalta (METAR- ja TAF-raportit).

Käytössä olevat sääasemat on merkitty karttaan keltaisilla ja punaisilla pisteillä.

Aseta hiiri pisteen päälle nähdäksesi sääaseman nimen.

Klikkaa sitten nähdäksesi säähavainnot ja -ennusteet.

Kartan vaihtaminen: klikkaa mustalla rastilla varustettuja vihreitä pisteitä, niin voit zoomata sisään; viivalla varustettua vihreää pistettä, niin voit zoomata ulos tai vihreitä nuolia, niin pääset viereisille kartoille.


METAR-TAF: